sensor_id;sensor_type;location;lat;lon;timestamp;pressure;altitude;pressure_sealevel;temperature;humidity
47738;BME280;33502;47.182;27.506;2023-04-08T00:01:31;100605.00;;;0.67;100.00
47738;BME280;33502;47.182;27.506;2023-04-08T00:03:57;100609.31;;;0.57;100.00
47738;BME280;33502;47.182;27.506;2023-04-08T00:06:23;100611.00;;;0.43;100.00
47738;BME280;33502;47.182;27.506;2023-04-08T00:08:48;100610.09;;;0.35;100.00
47738;BME280;33502;47.182;27.506;2023-04-08T00:11:14;100605.69;;;0.17;100.00
47738;BME280;33502;47.182;27.506;2023-04-08T00:13:40;100601.28;;;0.05;100.00
47738;BME280;33502;47.182;27.506;2023-04-08T00:16:06;100608.25;;;0.06;100.00
47738;BME280;33502;47.182;27.506;2023-04-08T00:18:32;100613.44;;;-0.02;100.00
47738;BME280;33502;47.182;27.506;2023-04-08T00:20:58;100615.16;;;0.01;100.00
47738;BME280;33502;47.182;27.506;2023-04-08T00:23:24;100623.84;;;0.03;100.00
47738;BME280;33502;47.182;27.506;2023-04-08T00:25:50;100605.63;;;0.03;100.00
47738;BME280;33502;47.182;27.506;2023-04-08T00:28:16;100614.34;;;0.10;100.00
47738;BME280;33502;47.182;27.506;2023-04-08T00:30:42;100613.44;;;0.05;100.00
47738;BME280;33502;47.182;27.506;2023-04-08T00:33:07;100620.34;;;-0.05;100.00
47738;BME280;33502;47.182;27.506;2023-04-08T00:35:33;100621.16;;;-0.17;100.00
47738;BME280;33502;47.182;27.506;2023-04-08T00:37:59;100622.88;;;-0.19;100.00
47738;BME280;33502;47.182;27.506;2023-04-08T00:40:26;100622.88;;;-0.17;100.00
47738;BME280;33502;47.182;27.506;2023-04-08T00:42:51;100620.22;;;-0.24;100.00
47738;BME280;33502;47.182;27.506;2023-04-08T00:45:17;100629.69;;;-0.38;100.00
47738;BME280;33502;47.182;27.506;2023-04-08T00:47:43;100625.31;;;-0.41;100.00
47738;BME280;33502;47.182;27.506;2023-04-08T00:50:09;100620.97;;;-0.48;100.00
47738;BME280;33502;47.182;27.506;2023-04-08T00:52:35;100635.59;;;-0.57;100.00
47738;BME280;33502;47.182;27.506;2023-04-08T00:55:01;100621.72;;;-0.60;100.00
47738;BME280;33502;47.182;27.506;2023-04-08T00:57:27;100627.75;;;-0.65;100.00
47738;BME280;33502;47.182;27.506;2023-04-08T00:59:53;100625.06;;;-0.73;100.00
47738;BME280;33502;47.182;27.506;2023-04-08T01:07:49;100633.81;;;-0.66;100.00
47738;BME280;33502;47.182;27.506;2023-04-08T01:12:53;100632.91;;;-0.71;100.00
47738;BME280;33502;47.182;27.506;2023-04-08T01:15:19;100632.88;;;-0.76;100.00
47738;BME280;33502;47.182;27.506;2023-04-08T01:17:47;100626.75;;;-0.81;100.00
47738;BME280;33502;47.182;27.506;2023-04-08T01:20:14;100634.47;;;-0.90;100.00
47738;BME280;33502;47.182;27.506;2023-04-08T01:25:30;100630.84;;;-1.08;100.00
47738;BME280;33502;47.182;27.506;2023-04-08T01:27:59;100637.69;;;-1.16;100.00
47738;BME280;33502;47.182;27.506;2023-04-08T01:30:26;100632.44;;;-1.21;100.00
47738;BME280;33502;47.182;27.506;2023-04-08T01:32:56;100637.63;;;-1.24;100.00
47738;BME280;33502;47.182;27.506;2023-04-08T01:35:24;100641.00;;;-1.31;100.00
47738;BME280;33502;47.182;27.506;2023-04-08T01:37:51;100636.66;;;-1.33;100.00
47738;BME280;33502;47.182;27.506;2023-04-08T01:40:18;100636.63;;;-1.36;100.00
47738;BME280;33502;47.182;27.506;2023-04-08T01:42:46;100635.69;;;-1.42;100.00
47738;BME280;33502;47.182;27.506;2023-04-08T01:45:13;100637.38;;;-1.45;100.00
47738;BME280;33502;47.182;27.506;2023-04-08T01:47:41;100639.06;;;-1.47;100.00
47738;BME280;33502;47.182;27.506;2023-04-08T01:50:11;100639.94;;;-1.50;100.00
47738;BME280;33502;47.182;27.506;2023-04-08T01:52:38;100636.47;;;-1.50;100.00
47738;BME280;33502;47.182;27.506;2023-04-08T01:55:05;100639.88;;;-1.53;100.00
47738;BME280;33502;47.182;27.506;2023-04-08T01:57:34;100645.91;;;-1.55;100.00
47738;BME280;33502;47.182;27.506;2023-04-08T02:00:24;100639.00;;;-1.53;100.00
47738;BME280;33502;47.182;27.506;2023-04-08T02:02:52;100640.81;;;-1.51;100.00
47738;BME280;33502;47.182;27.506;2023-04-08T02:05:19;100645.13;;;-1.50;100.00
47738;BME280;33502;47.182;27.506;2023-04-08T02:07:46;100641.69;;;-1.47;100.00
47738;BME280;33502;47.182;27.506;2023-04-08T02:10:13;100639.13;;;-1.44;100.00
47738;BME280;33502;47.182;27.506;2023-04-08T02:12:39;100639.13;;;-1.44;100.00
47738;BME280;33502;47.182;27.506;2023-04-08T02:15:10;100646.09;;;-1.43;100.00
47738;BME280;33502;47.182;27.506;2023-04-08T02:17:52;100640.00;;;-1.42;100.00
47738;BME280;33502;47.182;27.506;2023-04-08T02:23:16;100648.69;;;-1.40;100.00
47738;BME280;33502;47.182;27.506;2023-04-08T02:25:45;100646.97;;;-1.40;100.00
47738;BME280;33502;47.182;27.506;2023-04-08T02:28:12;100644.38;;;-1.38;100.00
47738;BME280;33502;47.182;27.506;2023-04-08T02:30:51;100647.88;;;-1.36;100.00
47738;BME280;33502;47.182;27.506;2023-04-08T02:33:20;100651.34;;;-1.34;100.00
47738;BME280;33502;47.182;27.506;2023-04-08T02:35:47;100648.78;;;-1.32;100.00
47738;BME280;33502;47.182;27.506;2023-04-08T02:38:14;100652.25;;;-1.30;100.00
47738;BME280;33502;47.182;27.506;2023-04-08T02:40:40;100653.16;;;-1.27;100.00
47738;BME280;33502;47.182;27.506;2023-04-08T02:43:06;100653.25;;;-1.22;100.00
47738;BME280;33502;47.182;27.506;2023-04-08T02:45:39;100651.50;;;-1.19;100.00
47738;BME280;33502;47.182;27.506;2023-04-08T02:48:06;100649.81;;;-1.15;100.00
47738;BME280;33502;47.182;27.506;2023-04-08T02:50:32;100654.19;;;-1.11;100.00
47738;BME280;33502;47.182;27.506;2023-04-08T02:52:57;100655.97;;;-1.08;100.00
47738;BME280;33502;47.182;27.506;2023-04-08T02:55:23;100662.91;;;-1.06;100.00
47738;BME280;33502;47.182;27.506;2023-04-08T02:57:49;100659.47;;;-1.05;100.00
47738;BME280;33502;47.182;27.506;2023-04-08T03:00:15;100658.63;;;-1.02;100.00
47738;BME280;33502;47.182;27.506;2023-04-08T03:02:41;100659.47;;;-1.02;100.00
47738;BME280;33502;47.182;27.506;2023-04-08T03:05:07;100658.66;;;-0.98;100.00
47738;BME280;33502;47.182;27.506;2023-04-08T03:07:34;100664.75;;;-0.97;100.00
47738;BME280;33502;47.182;27.506;2023-04-08T03:10:01;100664.75;;;-0.97;100.00
47738;BME280;33502;47.182;27.506;2023-04-08T03:12:27;100666.47;;;-0.96;100.00
47738;BME280;33502;47.182;27.506;2023-04-08T03:14:53;100661.28;;;-0.94;100.00
47738;BME280;33502;47.182;27.506;2023-04-08T03:17:19;100664.81;;;-0.91;100.00
47738;BME280;33502;47.182;27.506;2023-04-08T03:19:45;100664.81;;;-0.89;100.00
47738;BME280;33502;47.182;27.506;2023-04-08T03:22:12;100675.22;;;-0.86;100.00
47738;BME280;33502;47.182;27.506;2023-04-08T03:24:37;100669.16;;;-0.87;100.00
47738;BME280;33502;47.182;27.506;2023-04-08T03:27:03;100668.31;;;-0.84;100.00
47738;BME280;33502;47.182;27.506;2023-04-08T03:29:29;100681.34;;;-0.81;100.00
47738;BME280;33502;47.182;27.506;2023-04-08T03:31:55;100674.44;;;-0.82;100.00
47738;BME280;33502;47.182;27.506;2023-04-08T03:34:21;100676.16;;;-0.81;100.00
47738;BME280;33502;47.182;27.506;2023-04-08T03:36:47;100681.38;;;-0.80;100.00
47738;BME280;33502;47.182;27.506;2023-04-08T03:39:13;100678.78;;;-0.78;100.00
47738;BME280;33502;47.182;27.506;2023-04-08T03:41:38;100679.69;;;-0.76;100.00
47738;BME280;33502;47.182;27.506;2023-04-08T03:44:04;100677.97;;;-0.74;100.00
47738;BME280;33502;47.182;27.506;2023-04-08T03:46:30;100679.72;;;-0.70;100.00
47738;BME280;33502;47.182;27.506;2023-04-08T03:48:56;100688.44;;;-0.66;100.00
47738;BME280;33502;47.182;27.506;2023-04-08T03:51:22;100688.44;;;-0.63;100.00
47738;BME280;33502;47.182;27.506;2023-04-08T03:53:48;100691.97;;;-0.61;100.00
47738;BME280;33502;47.182;27.506;2023-04-08T03:56:14;100694.53;;;-0.60;100.00
47738;BME280;33502;47.182;27.506;2023-04-08T03:58:40;100694.53;;;-0.60;100.00
47738;BME280;33502;47.182;27.506;2023-04-08T04:01:06;100689.38;;;-0.56;100.00
47738;BME280;33502;47.182;27.506;2023-04-08T04:03:32;100689.41;;;-0.55;100.00
47738;BME280;33502;47.182;27.506;2023-04-08T04:05:57;100691.13;;;-0.54;100.00
47738;BME280;33502;47.182;27.506;2023-04-08T04:08:23;100694.59;;;-0.52;100.00
47738;BME280;33502;47.182;27.506;2023-04-08T04:10:49;100692.94;;;-0.47;100.00
47738;BME280;33502;47.182;27.506;2023-04-08T04:13:16;100689.47;;;-0.44;100.00
47738;BME280;33502;47.182;27.506;2023-04-08T04:15:42;100693.88;;;-0.40;100.00
47738;BME280;33502;47.182;27.506;2023-04-08T04:18:07;100697.34;;;-0.36;100.00
47738;BME280;33502;47.182;27.506;2023-04-08T04:20:33;100693.91;;;-0.31;100.00
47738;BME280;33502;47.182;27.506;2023-04-08T04:23:00;100698.31;;;-0.27;100.00
47738;BME280;33502;47.182;27.506;2023-04-08T04:25:25;100693.13;;;-0.21;100.00
47738;BME280;33502;47.182;27.506;2023-04-08T04:27:51;100695.75;;;-0.16;100.00
47738;BME280;33502;47.182;27.506;2023-04-08T04:30:17;100703.63;;;-0.08;100.00
47738;BME280;33502;47.182;27.506;2023-04-08T04:32:44;100708.00;;;-0.01;100.00
47738;BME280;33502;47.182;27.506;2023-04-08T04:35:10;100700.22;;;0.05;100.00
47738;BME280;33502;47.182;27.506;2023-04-08T04:37:37;100703.75;;;0.10;100.00
47738;BME280;33502;47.182;27.506;2023-04-08T04:40:04;100709.00;;;0.16;100.00
47738;BME280;33502;47.182;27.506;2023-04-08T04:42:30;100709.91;;;0.25;100.00
47738;BME280;33502;47.182;27.506;2023-04-08T04:44:56;100706.47;;;0.33;100.00
47738;BME280;33502;47.182;27.506;2023-04-08T04:47:23;100710.84;;;0.39;100.00
47738;BME280;33502;47.182;27.506;2023-04-08T04:49:49;100721.31;;;0.47;100.00
47738;BME280;33502;47.182;27.506;2023-04-08T04:52:15;100717.88;;;0.52;100.00
47738;BME280;33502;47.182;27.506;2023-04-08T04:54:41;100721.34;;;0.59;100.00
47738;BME280;33502;47.182;27.506;2023-04-08T04:57:07;100725.75;;;0.63;100.00
47738;BME280;33502;47.182;27.506;2023-04-08T04:59:33;100722.25;;;0.66;100.00
47738;BME280;33502;47.182;27.506;2023-04-08T05:01:59;100721.41;;;0.71;100.00
47738;BME280;33502;47.182;27.506;2023-04-08T05:04:25;100734.47;;;0.76;100.00
47738;BME280;33502;47.182;27.506;2023-04-08T05:06:50;100737.09;;;0.82;100.00
47738;BME280;33502;47.182;27.506;2023-04-08T05:09:16;100737.09;;;0.84;100.00
47738;BME280;33502;47.182;27.506;2023-04-08T05:11:42;100735.38;;;0.84;100.00
47738;BME280;33502;47.182;27.506;2023-04-08T05:14:08;100745.78;;;0.81;100.00
47738;BME280;33502;47.182;27.506;2023-04-08T05:16:34;100743.19;;;0.76;100.00
47738;BME280;33502;47.182;27.506;2023-04-08T05:19:00;100744.06;;;0.78;100.00
47738;BME280;33502;47.182;27.506;2023-04-08T05:21:25;100739.72;;;0.87;100.00
47738;BME280;33502;47.182;27.506;2023-04-08T05:23:53;100740.66;;;1.00;100.00
47738;BME280;33502;47.182;27.506;2023-04-08T05:26:19;100734.59;;;1.16;100.00
47738;BME280;33502;47.182;27.506;2023-04-08T05:28:49;100744.19;;;1.35;100.00
47738;BME280;33502;47.182;27.506;2023-04-08T05:31:19;100743.34;;;1.56;100.00
47738;BME280;33502;47.182;27.506;2023-04-08T05:33:45;100739.03;;;1.74;100.00
47738;BME280;33502;47.182;27.506;2023-04-08T05:36:11;100744.22;;;1.86;100.00
47738;BME280;33502;47.182;27.506;2023-04-08T05:38:38;100747.72;;;1.90;100.00
47738;BME280;33502;47.182;27.506;2023-04-08T05:41:04;100740.75;;;2.03;100.00
47738;BME280;33502;47.182;27.506;2023-04-08T05:43:32;100737.25;;;2.16;100.00
47738;BME280;33502;47.182;27.506;2023-04-08T05:45:57;100737.19;;;2.33;100.00
47738;BME280;33502;47.182;27.506;2023-04-08T05:48:23;100741.50;;;2.54;100.00
47738;BME280;33502;47.182;27.506;2023-04-08T05:50:49;100746.66;;;2.71;100.00
47738;BME280;33502;47.182;27.506;2023-04-08T05:53:15;100745.75;;;2.86;100.00
47738;BME280;33502;47.182;27.506;2023-04-08T05:55:41;100760.50;;;3.02;100.00
47738;BME280;33502;47.182;27.506;2023-04-08T05:58:07;100756.06;;;3.20;100.00
47738;BME280;33502;47.182;27.506;2023-04-08T06:00:32;100755.06;;;3.38;100.00
47738;BME280;33502;47.182;27.506;2023-04-08T06:02:58;100767.25;;;3.43;100.00
47738;BME280;33502;47.182;27.506;2023-04-08T06:05:25;100761.09;;;3.50;100.00
47738;BME280;33502;47.182;27.506;2023-04-08T06:07:51;100761.97;;;3.49;100.00
47738;BME280;33502;47.182;27.506;2023-04-08T06:10:16;100774.22;;;3.44;100.00
47738;BME280;33502;47.182;27.506;2023-04-08T06:12:42;100769.00;;;3.46;100.00
47738;BME280;33502;47.182;27.506;2023-04-08T06:15:08;100776.84;;;3.40;100.00
47738;BME280;33502;47.182;27.506;2023-04-08T06:17:35;100777.75;;;3.40;100.00
47738;BME280;33502;47.182;27.506;2023-04-08T06:20:02;100777.69;;;3.46;100.00
47738;BME280;33502;47.182;27.506;2023-04-08T06:22:28;100775.03;;;3.56;100.00
47738;BME280;33502;47.182;27.506;2023-04-08T06:24:54;100789.84;;;3.61;100.00
47738;BME280;33502;47.182;27.506;2023-04-08T06:27:20;100793.31;;;3.59;100.00
47738;BME280;33502;47.182;27.506;2023-04-08T06:29:45;100796.84;;;3.58;100.00
47738;BME280;33502;47.182;27.506;2023-04-08T06:32:12;100792.47;;;3.55;100.00
47738;BME280;33502;47.182;27.506;2023-04-08T06:34:38;100798.50;;;3.69;100.00
47738;BME280;33502;47.182;27.506;2023-04-08T06:37:05;100797.53;;;3.80;100.00
47738;BME280;33502;47.182;27.506;2023-04-08T06:39:32;100794.88;;;3.87;100.00
47738;BME280;33502;47.182;27.506;2023-04-08T06:41:58;100800.88;;;4.00;100.00
47738;BME280;33502;47.182;27.506;2023-04-08T06:44:46;100804.28;;;4.11;100.00
47738;BME280;33502;47.182;27.506;2023-04-08T06:47:12;100797.97;;;4.36;100.00
47738;BME280;33502;47.182;27.506;2023-04-08T06:49:38;100797.69;;;4.60;100.00
47738;BME280;33502;47.182;27.506;2023-04-08T06:52:04;100793.88;;;4.89;100.00
47738;BME280;33502;47.182;27.506;2023-04-08T06:54:31;100798.06;;;5.04;100.00
47738;BME280;33502;47.182;27.506;2023-04-08T06:56:57;100803.06;;;5.25;100.00
47738;BME280;33502;47.182;27.506;2023-04-08T06:59:22;100805.59;;;5.32;100.00
47738;BME280;33502;47.182;27.506;2023-04-08T07:01:48;100803.72;;;5.43;100.00
47738;BME280;33502;47.182;27.506;2023-04-08T07:04:14;100807.69;;;5.72;100.00
47738;BME280;33502;47.182;27.506;2023-04-08T07:06:40;100810.69;;;6.04;100.00
47738;BME280;33502;47.182;27.506;2023-04-08T07:09:05;100806.53;;;6.42;100.00
47738;BME280;33502;47.182;27.506;2023-04-08T07:11:32;100808.59;;;6.73;100.00
47738;BME280;33502;47.182;27.506;2023-04-08T07:13:58;100814.16;;;7.03;100.00
47738;BME280;33502;47.182;27.506;2023-04-08T07:16:24;100812.94;;;7.19;100.00
47738;BME280;33502;47.182;27.506;2023-04-08T07:18:50;100811.84;;;7.30;100.00
47738;BME280;33502;47.182;27.506;2023-04-08T07:21:16;100811.31;;;7.54;100.00
47738;BME280;33502;47.182;27.506;2023-04-08T07:23:42;100815.13;;;7.80;100.00
47738;BME280;33502;47.182;27.506;2023-04-08T07:26:08;100819.66;;;8.11;100.00
47738;BME280;33502;47.182;27.506;2023-04-08T07:28:34;100818.06;;;8.39;100.00
47738;BME280;33502;47.182;27.506;2023-04-08T07:31:10;100816.56;;;8.63;100.00
47738;BME280;33502;47.182;27.506;2023-04-08T07:33:36;100813.09;;;8.94;100.00
47738;BME280;33502;47.182;27.506;2023-04-08T07:36:02;100816.63;;;9.25;100.00
47738;BME280;33502;47.182;27.506;2023-04-08T07:38:28;100819.81;;;9.66;100.00
47738;BME280;33502;47.182;27.506;2023-04-08T07:40:53;100816.44;;;10.15;100.00
47738;BME280;33502;47.182;27.506;2023-04-08T07:43:19;100823.38;;;10.19;100.00
47738;BME280;33502;47.182;27.506;2023-04-08T07:45:45;100824.69;;;10.06;100.00
47738;BME280;33502;47.182;27.506;2023-04-08T07:48:11;100823.06;;;10.30;100.00
47738;BME280;33502;47.182;27.506;2023-04-08T07:50:36;100824.38;;;10.44;100.00
47738;BME280;33502;47.182;27.506;2023-04-08T07:53:02;100829.66;;;10.44;100.00
47738;BME280;33502;47.182;27.506;2023-04-08T07:55:32;100823.34;;;10.48;100.00
47738;BME280;33502;47.182;27.506;2023-04-08T07:57:59;100817.78;;;11.04;100.00
47738;BME280;33502;47.182;27.506;2023-04-08T08:00:24;100824.66;;;11.57;98.36
47738;BME280;33502;47.182;27.506;2023-04-08T08:02:50;100820.50;;;11.95;91.44
47738;BME280;33502;47.182;27.506;2023-04-08T08:05:16;100832.69;;;11.78;90.53
47738;BME280;33502;47.182;27.506;2023-04-08T08:07:42;100819.38;;;12.01;89.67
47738;BME280;33502;47.182;27.506;2023-04-08T08:10:08;100817.03;;;11.93;90.05
47738;BME280;33502;47.182;27.506;2023-04-08T08:12:35;100823.91;;;11.53;89.39
47738;BME280;33502;47.182;27.506;2023-04-08T08:15:01;100819.03;;;10.70;94.71
47738;BME280;33502;47.182;27.506;2023-04-08T08:17:27;100820.53;;;10.52;98.21
47738;BME280;33502;47.182;27.506;2023-04-08T08:19:55;100816.16;;;10.51;98.65
47738;BME280;33502;47.182;27.506;2023-04-08T08:22:21;100815.72;;;10.64;99.30
47738;BME280;33502;47.182;27.506;2023-04-08T08:24:47;100814.94;;;10.85;97.54
47738;BME280;33502;47.182;27.506;2023-04-08T08:27:13;100813.47;;;10.53;95.71
47738;BME280;33502;47.182;27.506;2023-04-08T08:29:38;100823.06;;;10.29;100.00
47738;BME280;33502;47.182;27.506;2023-04-08T08:32:05;100822.50;;;9.92;100.00
47738;BME280;33502;47.182;27.506;2023-04-08T08:34:31;100827.56;;;9.98;100.00
47738;BME280;33502;47.182;27.506;2023-04-08T08:36:56;100815.16;;;10.27;100.00
47738;BME280;33502;47.182;27.506;2023-04-08T08:39:22;100815.78;;;10.35;100.00
47738;BME280;33502;47.182;27.506;2023-04-08T08:41:48;100825.19;;;10.17;100.00
47738;BME280;33502;47.182;27.506;2023-04-08T08:44:14;100828.81;;;10.15;100.00
47738;BME280;33502;47.182;27.506;2023-04-08T08:46:43;100831.59;;;10.10;100.00
47738;BME280;33502;47.182;27.506;2023-04-08T08:49:09;100831.59;;;10.10;100.00
47738;BME280;33502;47.182;27.506;2023-04-08T08:51:36;100823.31;;;10.21;100.00
47738;BME280;33502;47.182;27.506;2023-04-08T08:54:04;100822.25;;;10.53;100.00
47738;BME280;33502;47.182;27.506;2023-04-08T08:56:32;100821.13;;;10.86;99.11
47738;BME280;33502;47.182;27.506;2023-04-08T08:58:58;100828.81;;;10.93;98.20
47738;BME280;33502;47.182;27.506;2023-04-08T09:01:31;100825.75;;;11.04;95.99
47738;BME280;33502;47.182;27.506;2023-04-08T09:04:11;100824.38;;;11.41;95.67
47738;BME280;33502;47.182;27.506;2023-04-08T09:06:40;100827.75;;;11.68;93.71
47738;BME280;33502;47.182;27.506;2023-04-08T09:09:06;100831.91;;;11.98;92.65
47738;BME280;33502;47.182;27.506;2023-04-08T09:11:42;100825.97;;;12.35;90.66
47738;BME280;33502;47.182;27.506;2023-04-08T09:14:21;100840.91;;;12.58;85.92
47738;BME280;33502;47.182;27.506;2023-04-08T09:16:47;100828.81;;;12.92;85.17
47738;BME280;33502;47.182;27.506;2023-04-08T09:19:13;100832.69;;;13.24;83.22
47738;BME280;33502;47.182;27.506;2023-04-08T09:21:40;100843.19;;;13.27;82.19
47738;BME280;33502;47.182;27.506;2023-04-08T09:24:07;100838.72;;;12.47;84.72
47738;BME280;33502;47.182;27.506;2023-04-08T09:26:33;100838.31;;;12.57;87.34
47738;BME280;33502;47.182;27.506;2023-04-08T09:29:05;100840.81;;;12.61;86.90
47738;BME280;33502;47.182;27.506;2023-04-08T09:31:34;100828.22;;;12.85;85.70
47738;BME280;33502;47.182;27.506;2023-04-08T09:34:13;100838.91;;;12.84;83.36
47738;BME280;33502;47.182;27.506;2023-04-08T09:36:41;100833.06;;;12.96;84.98
47738;BME280;33502;47.182;27.506;2023-04-08T09:39:07;100842.91;;;13.15;83.03
47738;BME280;33502;47.182;27.506;2023-04-08T09:41:34;100833.47;;;13.07;82.30
47738;BME280;33502;47.182;27.506;2023-04-08T09:44:06;100841.72;;;13.20;83.28
47738;BME280;33502;47.182;27.506;2023-04-08T09:49:10;100845.00;;;13.06;82.81
47738;BME280;33502;47.182;27.506;2023-04-08T09:51:53;100841.03;;;13.17;83.21
47738;BME280;33502;47.182;27.506;2023-04-08T09:54:24;100843.34;;;13.04;82.88
47738;BME280;33502;47.182;27.506;2023-04-08T09:57:01;100842.78;;;13.16;83.33
47738;BME280;33502;47.182;27.506;2023-04-08T09:59:33;100839.78;;;13.63;82.07
47738;BME280;33502;47.182;27.506;2023-04-08T10:02:04;100840.38;;;13.70;78.11
47738;BME280;33502;47.182;27.506;2023-04-08T10:04:34;100841.72;;;14.15;78.49
47738;BME280;33502;47.182;27.506;2023-04-08T10:07:05;100848.44;;;14.59;75.35
47738;BME280;33502;47.182;27.506;2023-04-08T10:09:32;100836.19;;;14.55;72.49
47738;BME280;33502;47.182;27.506;2023-04-08T10:11:58;100836.06;;;14.58;74.05
47738;BME280;33502;47.182;27.506;2023-04-08T10:14:24;100838.56;;;14.78;74.56
47738;BME280;33502;47.182;27.506;2023-04-08T10:17:24;100837.56;;;14.81;71.71
47738;BME280;33502;47.182;27.506;2023-04-08T10:19:52;100836.97;;;14.92;72.17
47738;BME280;33502;47.182;27.506;2023-04-08T10:25:31;100844.44;;;14.85;69.24
47738;BME280;33502;47.182;27.506;2023-04-08T10:28:43;100840.19;;;14.63;68.29
47738;BME280;33502;47.182;27.506;2023-04-08T10:30:54;100842.25;;;14.76;68.17
47738;BME280;33502;47.182;27.506;2023-04-08T10:38:36;100834.13;;;15.12;66.77
47738;BME280;33502;47.182;27.506;2023-04-08T10:41:03;100827.44;;;15.03;66.89
47738;BME280;33502;47.182;27.506;2023-04-08T10:43:32;100830.03;;;15.05;66.80
47738;BME280;33502;47.182;27.506;2023-04-08T10:45:58;100829.56;;;14.81;65.24
47738;BME280;33502;47.182;27.506;2023-04-08T10:48:25;100826.09;;;14.96;66.35
47738;BME280;33502;47.182;27.506;2023-04-08T10:51:11;100823.81;;;15.22;63.64
47738;BME280;33502;47.182;27.506;2023-04-08T10:53:38;100822.22;;;14.84;62.58
47738;BME280;33502;47.182;27.506;2023-04-08T10:56:05;100822.84;;;14.90;62.65
47738;BME280;33502;47.182;27.506;2023-04-08T10:58:32;100820.75;;;14.44;62.33
47738;BME280;33502;47.182;27.506;2023-04-08T11:01:05;100835.19;;;14.57;62.46
47738;BME280;33502;47.182;27.506;2023-04-08T11:03:32;100826.72;;;14.66;61.63
47738;BME280;33502;47.182;27.506;2023-04-08T11:05:59;100826.50;;;14.88;64.08
47738;BME280;33502;47.182;27.506;2023-04-08T11:08:30;100827.75;;;15.15;63.92
47738;BME280;33502;47.182;27.506;2023-04-08T11:10:57;100824.66;;;15.22;62.35
47738;BME280;33502;47.182;27.506;2023-04-08T11:13:26;100819.97;;;14.94;61.78
47738;BME280;33502;47.182;27.506;2023-04-08T11:15:51;100820.84;;;15.11;62.40
47738;BME280;33502;47.182;27.506;2023-04-08T11:18:18;100822.13;;;15.03;61.96
47738;BME280;33502;47.182;27.506;2023-04-08T11:20:43;100823.31;;;14.98;61.04
47738;BME280;33502;47.182;27.506;2023-04-08T11:23:12;100829.19;;;15.04;60.62
47738;BME280;33502;47.182;27.506;2023-04-08T11:25:41;100826.97;;;15.13;60.96
47738;BME280;33502;47.182;27.506;2023-04-08T11:28:08;100825.44;;;15.24;60.25
47738;BME280;33502;47.182;27.506;2023-04-08T11:30:34;100823.63;;;14.92;60.17
47738;BME280;33502;47.182;27.506;2023-04-08T11:33:00;100820.94;;;14.76;61.06
47738;BME280;33502;47.182;27.506;2023-04-08T11:35:29;100816.53;;;14.57;60.42
47738;BME280;33502;47.182;27.506;2023-04-08T11:37:56;100826.63;;;14.33;62.93
47738;BME280;33502;47.182;27.506;2023-04-08T11:40:22;100820.91;;;14.41;62.15
47738;BME280;33502;47.182;27.506;2023-04-08T11:42:52;100824.03;;;14.32;62.35
47738;BME280;33502;47.182;27.506;2023-04-08T11:45:19;100820.47;;;14.67;61.37
47738;BME280;33502;47.182;27.506;2023-04-08T11:47:46;100824.63;;;15.06;59.17
47738;BME280;33502;47.182;27.506;2023-04-08T11:50:22;100823.94;;;15.03;59.64
47738;BME280;33502;47.182;27.506;2023-04-08T11:52:50;100823.91;;;14.87;60.87
47738;BME280;33502;47.182;27.506;2023-04-08T11:57:52;100813.72;;;14.78;59.68
47738;BME280;33502;47.182;27.506;2023-04-08T12:00:19;100818.28;;;14.58;58.97
47738;BME280;33502;47.182;27.506;2023-04-08T12:02:45;100815.41;;;14.44;58.96
47738;BME280;33502;47.182;27.506;2023-04-08T12:05:15;100819.97;;;14.24;59.82
47738;BME280;33502;47.182;27.506;2023-04-08T12:07:42;100815.94;;;13.79;60.27
47738;BME280;33502;47.182;27.506;2023-04-08T12:10:09;100815.84;;;13.44;61.73
47738;BME280;33502;47.182;27.506;2023-04-08T12:12:35;100809.75;;;13.22;65.07
47738;BME280;33502;47.182;27.506;2023-04-08T12:15:01;100811.00;;;13.34;66.78
47738;BME280;33502;47.182;27.506;2023-04-08T12:17:27;100818.31;;;13.28;65.78
47738;BME280;33502;47.182;27.506;2023-04-08T12:19:52;100811.09;;;13.32;68.23
47738;BME280;33502;47.182;27.506;2023-04-08T12:22:18;100807.66;;;13.30;69.47
47738;BME280;33502;47.182;27.506;2023-04-08T12:24:44;100807.66;;;13.49;68.49
47738;BME280;33502;47.182;27.506;2023-04-08T12:27:10;100806.34;;;13.39;66.72
47738;BME280;33502;47.182;27.506;2023-04-08T12:29:36;100805.91;;;13.48;66.75
47738;BME280;33502;47.182;27.506;2023-04-08T12:32:01;100798.59;;;13.89;66.23
47738;BME280;33502;47.182;27.506;2023-04-08T12:34:29;100795.44;;;14.18;64.99
47738;BME280;33502;47.182;27.506;2023-04-08T12:36:54;100798.81;;;14.39;65.53
47738;BME280;33502;47.182;27.506;2023-04-08T12:39:20;100802.28;;;14.58;64.66
47738;BME280;33502;47.182;27.506;2023-04-08T12:41:46;100797.25;;;14.87;63.22
47738;BME280;33502;47.182;27.506;2023-04-08T12:44:12;100786.09;;;15.12;62.08
47738;BME280;33502;47.182;27.506;2023-04-08T12:46:38;100791.03;;;15.20;62.71
47738;BME280;33502;47.182;27.506;2023-04-08T12:49:04;100796.19;;;14.90;62.55
47738;BME280;33502;47.182;27.506;2023-04-08T12:51:30;100792.56;;;14.57;61.94
47738;BME280;33502;47.182;27.506;2023-04-08T12:53:56;100789.75;;;14.60;63.61
47738;BME280;33502;47.182;27.506;2023-04-08T12:56:22;100789.50;;;14.65;65.54
47738;BME280;33502;47.182;27.506;2023-04-08T12:58:48;100791.94;;;14.70;65.30
47738;BME280;33502;47.182;27.506;2023-04-08T13:01:14;100786.69;;;14.68;64.64
47738;BME280;33502;47.182;27.506;2023-04-08T13:03:40;100783.84;;;14.71;64.91